createdAt,value
2019-01-23T00:00:32.191Z,107.10
2019-01-23T00:03:01.795Z,110.97
2019-01-23T00:05:31.283Z,109.90
2019-01-23T00:08:00.833Z,118.33
2019-01-23T00:10:30.198Z,115.53
2019-01-23T00:12:59.589Z,115.53
2019-01-23T00:15:29.078Z,121.27
2019-01-23T00:17:58.805Z,113.07
2019-01-23T00:20:28.132Z,124.37
2019-01-23T00:22:57.482Z,116.80
2019-01-23T00:25:27.275Z,119.50
2019-01-23T00:27:56.972Z,113.50
2019-01-23T00:30:26.380Z,104.37
2019-01-23T00:32:55.808Z,110.30
2019-01-23T00:35:25.313Z,112.17
2019-01-23T00:37:54.909Z,121.63
2019-01-23T00:40:24.377Z,114.33
2019-01-23T00:42:53.865Z,107.87
2019-01-23T00:45:23.387Z,104.70
2019-01-23T00:47:52.986Z,96.90
2019-01-23T00:50:22.324Z,103.37
2019-01-23T00:52:51.685Z,109.87
2019-01-23T00:55:21.059Z,105.80
2019-01-23T00:57:50.510Z,108.37
2019-01-23T01:00:25.532Z,101.87
2019-01-23T01:02:55.470Z,103.97
2019-01-23T01:05:24.816Z,113.40
2019-01-23T01:07:54.474Z,105.13
2019-01-23T01:10:23.808Z,107.07
2019-01-23T01:12:53.274Z,108.27
2019-01-23T01:15:22.672Z,89.50
2019-01-23T01:17:51.981Z,83.90
2019-01-23T01:20:21.475Z,80.90
2019-01-23T01:22:50.835Z,75.90
2019-01-23T01:25:21.056Z,78.57
2019-01-23T01:27:50.454Z,76.03
2019-01-23T01:30:22.669Z,74.57
2019-01-23T01:32:52.009Z,79.13
2019-01-23T01:35:21.307Z,95.30
2019-01-23T01:37:50.646Z,108.50
2019-01-23T01:40:20.171Z,92.27
2019-01-23T01:42:49.486Z,95.60
2019-01-23T01:45:18.863Z,95.60
2019-01-23T01:47:48.308Z,100.20
2019-01-23T01:50:19.326Z,107.53
2019-01-23T01:52:48.974Z,94.47
2019-01-23T01:55:18.280Z,88.23
2019-01-23T01:57:48.503Z,87.90
2019-01-23T02:00:20.266Z,93.53
2019-01-23T02:02:49.735Z,107.23
2019-01-23T02:05:19.214Z,96.90
2019-01-23T02:07:48.524Z,113.83
2019-01-23T02:10:19.371Z,113.67
2019-01-23T02:12:49.263Z,111.20
2019-01-23T02:15:18.702Z,112.27
2019-01-23T02:17:48.155Z,102.83
2019-01-23T02:20:22.230Z,113.70
2019-01-23T02:22:52.510Z,104.17
2019-01-23T02:25:23.070Z,111.30
2019-01-23T02:27:52.714Z,105.80
2019-01-23T02:30:23.287Z,107.03
2019-01-23T02:32:52.651Z,97.27
2019-01-23T02:35:22.098Z,108.33
2019-01-23T02:37:51.683Z,82.90
2019-01-23T02:40:21.760Z,87.27
2019-01-23T02:42:51.159Z,70.10
2019-01-23T02:45:20.456Z,82.00
2019-01-23T02:47:50.004Z,79.63
2019-01-23T02:50:19.337Z,85.17
2019-01-23T02:52:48.640Z,68.73
2019-01-23T02:55:18.036Z,80.93
2019-01-23T02:57:47.556Z,82.27
2019-01-23T03:00:18.194Z,82.63
2019-01-23T03:02:47.967Z,83.60
2019-01-23T03:05:18.911Z,79.67
2019-01-23T03:07:48.270Z,79.20
2019-01-23T03:10:18.932Z,79.57
2019-01-23T03:12:48.395Z,76.63
2019-01-23T03:15:18.190Z,78.43
2019-01-23T03:17:47.543Z,82.90
2019-01-23T03:20:17.927Z,77.10
2019-01-23T03:22:47.386Z,70.57
2019-01-23T03:25:16.827Z,63.13
2019-01-23T03:27:46.161Z,74.93
2019-01-23T03:30:17.766Z,75.83
2019-01-23T03:32:47.293Z,72.40
2019-01-23T03:35:16.878Z,66.00
2019-01-23T03:37:46.581Z,66.70
2019-01-23T03:40:20.709Z,65.50
2019-01-23T03:42:50.170Z,74.70
2019-01-23T03:45:19.657Z,69.10
2019-01-23T03:47:49.219Z,62.17
2019-01-23T03:50:19.960Z,62.70
2019-01-23T03:52:49.315Z,57.47
2019-01-23T03:55:19.222Z,64.97
2019-01-23T03:57:48.859Z,61.83
2019-01-23T04:00:20.693Z,64.50
2019-01-23T04:02:51.043Z,59.67
2019-01-23T04:05:21.535Z,58.63
2019-01-23T04:07:50.824Z,63.50
2019-01-23T04:10:20.121Z,67.33
2019-01-23T04:12:49.468Z,70.77
2019-01-23T04:15:18.850Z,68.17
2019-01-23T04:17:48.268Z,61.77
2019-01-23T04:20:22.296Z,66.33
2019-01-23T04:22:51.852Z,65.57
2019-01-23T04:25:21.185Z,69.50
2019-01-23T04:27:50.525Z,70.13
2019-01-23T04:30:22.838Z,67.90
2019-01-23T04:32:52.166Z,68.67
2019-01-23T04:35:21.471Z,69.27
2019-01-23T04:37:50.902Z,64.60
2019-01-23T04:40:20.249Z,64.70
2019-01-23T04:42:49.685Z,63.67
2019-01-23T04:45:19.111Z,67.43
2019-01-23T04:47:48.480Z,67.60
2019-01-23T04:50:18.740Z,68.37
2019-01-23T04:52:49.935Z,69.20
2019-01-23T04:55:19.557Z,70.53
2019-01-23T04:57:48.863Z,71.67
2019-01-23T05:00:22.587Z,73.27
2019-01-23T05:02:51.928Z,71.80
2019-01-23T05:05:21.275Z,73.87
2019-01-23T05:07:50.740Z,70.20
2019-01-23T05:10:20.180Z,73.00
2019-01-23T05:12:50.544Z,74.57
2019-01-23T05:15:19.889Z,75.30
2019-01-23T05:17:49.380Z,79.40
2019-01-23T05:20:18.838Z,68.90
2019-01-23T05:22:48.176Z,71.90
2019-01-23T05:25:17.496Z,71.50
2019-01-23T05:27:46.915Z,77.20
2019-01-23T05:30:19.524Z,80.00
2019-01-23T05:32:48.835Z,73.83
2019-01-23T05:35:18.515Z,60.93
2019-01-23T05:37:48.166Z,68.00
2019-01-23T05:40:17.846Z,72.80
2019-01-23T05:42:47.175Z,74.67
2019-01-23T05:45:16.703Z,82.03
2019-01-23T05:47:46.296Z,79.80
2019-01-23T05:50:17.972Z,85.60
2019-01-23T05:52:48.458Z,94.20
2019-01-23T05:55:17.914Z,99.17
2019-01-23T05:57:47.192Z,96.60
2019-01-23T06:00:18.923Z,90.10
2019-01-23T06:02:48.307Z,109.43
2019-01-23T06:05:18.342Z,107.13
2019-01-23T06:07:47.706Z,106.20
2019-01-23T06:10:17.014Z,106.23
2019-01-23T06:12:46.331Z,86.40
2019-01-23T06:15:17.004Z,81.20
2019-01-23T06:17:46.306Z,73.10
2019-01-23T06:20:18.316Z,78.77
2019-01-23T06:22:47.707Z,81.40
2019-01-23T06:25:17.092Z,91.97
2019-01-23T06:27:47.482Z,85.30
2019-01-23T06:30:22.553Z,91.60
2019-01-23T06:32:51.975Z,112.83
2019-01-23T06:35:21.283Z,104.20
2019-01-23T06:37:50.590Z,96.57
2019-01-23T06:40:19.948Z,91.60
2019-01-23T06:42:49.288Z,90.23
2019-01-23T06:45:19.076Z,95.33
2019-01-23T06:47:50.047Z,89.10
2019-01-23T06:50:22.658Z,88.67
2019-01-23T06:52:52.087Z,90.53
2019-01-23T06:55:21.570Z,76.23
2019-01-23T06:57:52.039Z,67.87
2019-01-23T07:00:23.195Z,67.17
2019-01-23T07:02:53.476Z,68.17
2019-01-23T07:05:24.539Z,70.33
2019-01-23T07:07:53.875Z,71.60
2019-01-23T07:10:24.376Z,75.10
2019-01-23T07:12:53.707Z,80.43
2019-01-23T07:15:23.163Z,77.60
2019-01-23T07:17:52.848Z,71.87
2019-01-23T07:20:24.584Z,76.30
2019-01-23T07:22:54.258Z,71.27
2019-01-23T07:25:23.708Z,76.43
2019-01-23T07:27:53.350Z,72.63
2019-01-23T07:30:31.698Z,72.00
2019-01-23T07:33:01.005Z,74.63
2019-01-23T07:35:30.316Z,83.63
2019-01-23T07:37:59.775Z,77.67
2019-01-23T07:40:29.142Z,78.73
2019-01-23T07:42:58.442Z,76.10
2019-01-23T07:45:28.503Z,74.07
2019-01-23T07:47:57.804Z,85.30
2019-01-23T07:50:27.119Z,78.13
2019-01-23T07:52:56.491Z,76.27
2019-01-23T07:55:25.875Z,87.30
2019-01-23T07:57:55.176Z,78.90
2019-01-23T08:00:31.319Z,87.30
2019-01-23T08:02:58.262Z,79.83
2019-01-23T08:05:27.758Z,81.43
2019-01-23T08:07:57.114Z,78.43
2019-01-23T08:10:26.475Z,77.80
2019-01-23T08:12:55.850Z,80.60
2019-01-23T08:15:30.716Z,75.83
2019-01-23T08:18:00.091Z,76.73
2019-01-23T08:20:30.335Z,72.27
2019-01-23T08:22:59.749Z,79.90
2019-01-23T08:25:29.044Z,71.07
2019-01-23T08:27:58.350Z,67.60
2019-01-23T08:30:27.704Z,71.53
2019-01-23T08:32:57.013Z,74.53
2019-01-23T08:35:26.453Z,71.03
2019-01-23T08:37:55.790Z,71.87
2019-01-23T08:40:25.106Z,63.10
2019-01-23T08:42:54.432Z,67.00
2019-01-23T08:45:23.950Z,60.73
2019-01-23T08:47:53.332Z,64.53
2019-01-23T08:50:31.847Z,65.00
2019-01-23T08:53:01.147Z,64.13
2019-01-23T08:55:30.446Z,69.37
2019-01-23T08:57:59.804Z,69.10
2019-01-23T09:00:29.218Z,68.27
2019-01-23T09:02:58.610Z,71.50
2019-01-23T09:05:28.019Z,69.10
2019-01-23T09:07:57.374Z,70.43
2019-01-23T09:10:28.414Z,75.10
2019-01-23T09:12:57.839Z,70.33
2019-01-23T09:15:27.151Z,77.00
2019-01-23T09:17:56.447Z,78.60
2019-01-23T09:20:25.950Z,77.10
2019-01-23T09:22:55.444Z,76.27
2019-01-23T09:25:26.695Z,81.50
2019-01-23T09:27:56.099Z,78.60
2019-01-23T09:30:34.927Z,77.87
2019-01-23T09:33:30.075Z,86.57
2019-01-23T09:36:14.826Z,73.73
2019-01-23T09:39:09.866Z,82.80
2019-01-23T09:42:19.087Z,84.43
2019-01-23T09:45:08.400Z,80.80
2019-01-23T09:47:59.083Z,90.70
2019-01-23T09:50:43.275Z,84.37
2019-01-23T09:53:19.687Z,81.27
2019-01-23T09:55:49.142Z,80.83
2019-01-23T09:58:18.515Z,77.40
2019-01-23T10:00:47.859Z,90.70
2019-01-23T10:03:22.975Z,82.00
2019-01-23T10:05:48.549Z,95.43
2019-01-23T10:08:18.178Z,81.43
2019-01-23T10:10:47.490Z,82.40
2019-01-23T10:13:16.843Z,77.23
2019-01-23T10:16:30.516Z,80.13
2019-01-23T10:18:59.861Z,75.77
2019-01-23T10:21:29.157Z,85.00
2019-01-23T10:23:58.471Z,78.20
2019-01-23T10:26:27.826Z,73.70
2019-01-23T10:28:58.980Z,84.17
2019-01-23T10:31:28.286Z,74.57
2019-01-23T10:33:57.642Z,74.57
2019-01-23T10:36:27.043Z,74.83
2019-01-23T10:38:56.387Z,72.33
2019-01-23T10:41:25.682Z,76.80
2019-01-23T10:43:55.048Z,66.03
2019-01-23T10:46:24.555Z,85.23
2019-01-23T10:48:53.890Z,84.43
2019-01-23T10:51:23.196Z,78.33
2019-01-23T10:53:53.140Z,65.07
2019-01-23T10:56:22.484Z,71.33
2019-01-23T10:58:52.008Z,71.77
2019-01-23T11:01:21.363Z,74.33
2019-01-23T11:03:50.679Z,64.87
2019-01-23T11:06:21.144Z,69.53
2019-01-23T11:08:50.494Z,73.13
2019-01-23T11:11:19.841Z,71.33
2019-01-23T11:13:49.130Z,71.67
2019-01-23T11:16:18.463Z,65.83
2019-01-23T11:18:47.865Z,67.83
2019-01-23T11:21:17.682Z,70.87
2019-01-23T11:23:47.278Z,64.53
2019-01-23T11:26:16.607Z,67.43
2019-01-23T11:28:46.084Z,64.17
2019-01-23T11:31:20.337Z,64.37
2019-01-23T11:33:46.525Z,57.53
2019-01-23T11:36:16.130Z,66.17
2019-01-23T11:38:45.622Z,67.00
2019-01-23T11:41:15.211Z,61.90
2019-01-23T11:43:44.520Z,64.90
2019-01-23T11:46:13.983Z,64.10
2019-01-23T11:48:43.315Z,57.60
2019-01-23T11:51:12.618Z,58.03
2019-01-23T11:53:41.989Z,58.90
2019-01-23T11:56:11.387Z,63.33
2019-01-23T11:58:40.711Z,59.83
2019-01-23T12:01:10.162Z,56.87
2019-01-23T12:03:39.466Z,60.10
2019-01-23T12:06:08.780Z,61.73
2019-01-23T12:08:38.199Z,62.30
2019-01-23T12:11:07.671Z,59.83
2019-01-23T12:13:36.979Z,57.67
2019-01-23T12:16:06.290Z,54.07
2019-01-23T12:18:35.869Z,57.63
2019-01-23T12:21:05.281Z,51.73
2019-01-23T12:23:35.291Z,51.80
2019-01-23T12:26:05.501Z,48.23
2019-01-23T12:28:35.313Z,52.33
2019-01-23T12:31:04.919Z,49.47
2019-01-23T12:33:34.295Z,57.90
2019-01-23T12:36:03.747Z,48.27
2019-01-23T12:38:33.432Z,55.87
2019-01-23T12:41:02.763Z,49.00
2019-01-23T12:43:32.237Z,48.83
2019-01-23T12:46:01.695Z,47.30
2019-01-23T12:48:31.331Z,49.93
2019-01-23T12:51:01.030Z,50.87
2019-01-23T12:53:30.383Z,53.33
2019-01-23T12:56:00.183Z,57.03
2019-01-23T12:58:29.539Z,62.43
2019-01-23T13:00:59.030Z,42.70
2019-01-23T13:03:28.513Z,49.93
2019-01-23T13:05:59.420Z,46.23
2019-01-23T13:08:31.479Z,43.80
2019-01-23T13:11:00.839Z,46.83
2019-01-23T13:13:30.166Z,42.77
2019-01-23T13:15:59.890Z,40.83
2019-01-23T13:18:29.599Z,47.00
2019-01-23T13:20:59.077Z,47.13
2019-01-23T13:23:29.017Z,50.30
2019-01-23T13:25:58.934Z,48.33
2019-01-23T13:28:28.640Z,48.30
2019-01-23T13:31:01.532Z,46.70
2019-01-23T13:33:31.334Z,54.10
2019-01-23T13:36:00.941Z,48.07
2019-01-23T13:38:30.267Z,47.50
2019-01-23T13:41:00.103Z,49.80
2019-01-23T13:43:29.700Z,47.80
2019-01-23T13:45:59.025Z,49.33
2019-01-23T13:48:28.670Z,44.23
2019-01-23T13:50:58.377Z,47.60
2019-01-23T13:53:27.788Z,50.90
2019-01-23T13:56:00.253Z,47.50
2019-01-23T13:58:30.271Z,47.87
2019-01-23T14:00:59.571Z,53.10
2019-01-23T14:03:28.948Z,55.07
2019-01-23T14:05:58.830Z,49.87
2019-01-23T14:08:29.215Z,46.90
2019-01-23T14:10:58.517Z,44.70
2019-01-23T14:13:27.832Z,50.60
2019-01-23T14:15:57.159Z,48.63
2019-01-23T14:18:26.818Z,51.67
2019-01-23T14:20:56.178Z,53.03
2019-01-23T14:23:25.521Z,62.53
2019-01-23T14:25:55.136Z,69.30
2019-01-23T14:28:24.847Z,53.87
2019-01-23T14:30:54.292Z,62.33
2019-01-23T14:33:23.650Z,60.20
2019-01-23T14:35:53.144Z,58.77
2019-01-23T14:38:22.501Z,76.27
2019-01-23T14:40:51.895Z,91.83
2019-01-23T14:43:21.198Z,59.00
2019-01-23T14:45:50.649Z,43.53
2019-01-23T14:48:19.987Z,53.20
2019-01-23T14:50:49.485Z,54.33
2019-01-23T14:53:19.167Z,47.63
2019-01-23T14:55:48.539Z,52.30
2019-01-23T14:58:17.934Z,58.17
2019-01-23T15:00:47.314Z,58.43
2019-01-23T15:03:16.708Z,59.90
2019-01-23T15:05:46.205Z,53.60
2019-01-23T15:08:15.511Z,54.03
2019-01-23T15:10:44.873Z,61.17
2019-01-23T15:13:14.181Z,62.67
2019-01-23T15:15:43.872Z,64.37
2019-01-23T15:18:13.558Z,60.10
2019-01-23T15:20:43.051Z,55.70
2019-01-23T15:23:12.850Z,54.40
2019-01-23T15:25:42.430Z,61.30
2019-01-23T15:28:11.935Z,65.80
2019-01-23T15:30:41.496Z,59.17
2019-01-23T15:33:10.990Z,59.87
2019-01-23T15:35:40.848Z,58.77
2019-01-23T15:38:10.710Z,57.17
2019-01-23T15:40:40.262Z,59.77
2019-01-23T15:43:09.848Z,61.67
2019-01-23T15:45:39.575Z,50.70
2019-01-23T15:48:09.293Z,63.50
2019-01-23T15:50:39.195Z,58.57
2019-01-23T15:53:08.859Z,50.23
2019-01-23T15:55:38.597Z,50.80
2019-01-23T15:58:08.537Z,61.60
2019-01-23T16:00:38.340Z,52.60
2019-01-23T16:03:07.855Z,56.43
2019-01-23T16:05:37.642Z,53.50
2019-01-23T16:08:07.205Z,59.83
2019-01-23T16:10:37.588Z,61.70
2019-01-23T16:13:07.337Z,61.97
2019-01-23T16:15:36.894Z,61.40
2019-01-23T16:18:06.380Z,62.93
2019-01-23T16:20:36.092Z,55.30
2019-01-23T16:23:06.235Z,56.33
2019-01-23T16:25:36.457Z,50.50
2019-01-23T16:28:07.322Z,63.03
2019-01-23T16:30:37.471Z,50.80
2019-01-23T16:33:07.046Z,56.50
2019-01-23T16:35:38.798Z,67.60
2019-01-23T16:38:08.338Z,55.80
2019-01-23T16:40:37.843Z,50.53
2019-01-23T16:43:07.445Z,56.33
2019-01-23T16:45:40.183Z,46.53
2019-01-23T16:48:09.810Z,50.00
2019-01-23T16:50:39.579Z,48.63
2019-01-23T16:53:08.904Z,50.07
2019-01-23T16:55:38.640Z,45.37
2019-01-23T16:58:09.011Z,49.53
2019-01-23T17:00:38.550Z,50.03
2019-01-23T17:03:08.023Z,46.77
2019-01-23T17:05:37.492Z,56.30
2019-01-23T17:08:06.952Z,54.57
2019-01-23T17:10:36.336Z,56.83
2019-01-23T17:13:05.835Z,53.13
2019-01-23T17:15:35.360Z,62.77
2019-01-23T17:18:04.875Z,63.57
2019-01-23T17:20:40.003Z,59.63
2019-01-23T17:23:09.526Z,56.70
2019-01-23T17:25:59.790Z,62.67
2019-01-23T17:28:29.099Z,68.93
2019-01-23T17:30:58.507Z,47.93
2019-01-23T17:33:27.843Z,54.67
2019-01-23T17:36:20.795Z,61.87
2019-01-23T17:38:50.138Z,53.30
2019-01-23T17:41:19.443Z,56.03
2019-01-23T17:43:49.111Z,49.33
2019-01-23T17:46:18.771Z,55.37
2019-01-23T17:48:48.135Z,51.43
2019-01-23T17:51:17.523Z,55.03
2019-01-23T17:53:46.859Z,47.53
2019-01-23T17:56:16.234Z,50.33
2019-01-23T17:58:45.604Z,47.43
2019-01-23T18:01:15.052Z,51.23
2019-01-23T18:03:44.420Z,47.77
2019-01-23T18:06:13.832Z,54.20
2019-01-23T18:08:43.176Z,53.80
2019-01-23T18:11:13.515Z,51.10
2019-01-23T18:13:42.883Z,43.17
2019-01-23T18:16:12.375Z,52.93
2019-01-23T18:18:41.675Z,48.27
2019-01-23T18:21:10.989Z,41.07
2019-01-23T18:23:40.332Z,54.37
2019-01-23T18:26:09.644Z,61.20
2019-01-23T18:28:39.224Z,53.10
2019-01-23T18:31:17.403Z,53.17
2019-01-23T18:33:49.963Z,62.07
2019-01-23T18:36:46.785Z,50.43
2019-01-23T18:39:33.956Z,44.93
2019-01-23T18:42:29.095Z,45.37
2019-01-23T18:45:04.704Z,51.43
2019-01-23T18:47:55.531Z,54.70
2019-01-23T18:50:43.267Z,58.53
2019-01-23T18:53:12.827Z,57.20
2019-01-23T18:55:42.531Z,47.97
2019-01-23T18:58:12.140Z,55.00
2019-01-23T19:00:42.123Z,43.50
2019-01-23T19:03:11.453Z,52.20
2019-01-23T19:05:40.972Z,49.20
2019-01-23T19:08:10.279Z,43.83
2019-01-23T19:10:39.870Z,52.83
2019-01-23T19:13:10.235Z,57.87
2019-01-23T19:15:39.538Z,52.80
2019-01-23T19:18:08.867Z,58.20
2019-01-23T19:20:38.178Z,55.17
2019-01-23T19:23:07.488Z,55.57
2019-01-23T19:25:36.875Z,51.33
2019-01-23T19:28:06.203Z,59.70
2019-01-23T19:30:35.518Z,61.10
2019-01-23T19:33:04.924Z,51.80
2019-01-23T19:35:34.342Z,56.23
2019-01-23T19:38:03.671Z,56.83
2019-01-23T19:40:33.075Z,52.27
2019-01-23T19:43:02.396Z,50.73
2019-01-23T19:45:32.166Z,50.13
2019-01-23T19:48:01.521Z,48.60
2019-01-23T19:50:30.981Z,47.60
2019-01-23T19:53:00.771Z,53.93
2019-01-23T19:55:30.180Z,55.47
2019-01-23T19:58:00.727Z,53.87
2019-01-23T20:00:30.028Z,50.93
2019-01-23T20:02:59.579Z,56.33
2019-01-23T20:05:28.972Z,48.07
2019-01-23T20:07:58.406Z,45.80
2019-01-23T20:10:27.755Z,49.37
2019-01-23T20:12:57.194Z,48.67
2019-01-23T20:15:26.494Z,54.27
2019-01-23T20:17:56.778Z,56.17
2019-01-23T20:20:26.075Z,46.20
2019-01-23T20:22:55.407Z,55.00
2019-01-23T20:25:26.119Z,51.17
2019-01-23T20:27:55.691Z,44.93
2019-01-23T20:30:28.247Z,46.13
2019-01-23T20:32:57.617Z,43.60
2019-01-23T20:35:26.982Z,43.90
2019-01-23T20:37:56.356Z,43.90
2019-01-23T20:40:25.863Z,54.47
2019-01-23T20:42:55.422Z,45.80
2019-01-23T20:45:25.462Z,45.97
2019-01-23T20:47:54.812Z,44.63
2019-01-23T20:50:26.551Z,49.50
2019-01-23T20:52:56.039Z,42.13
2019-01-23T20:55:25.716Z,56.40
2019-01-23T20:57:55.028Z,45.03
2019-01-23T21:00:27.696Z,55.87
2019-01-23T21:02:56.998Z,58.20
2019-01-23T21:05:26.438Z,49.33
2019-01-23T21:07:55.821Z,52.03
2019-01-23T21:10:26.914Z,46.03
2019-01-23T21:12:57.157Z,52.03
2019-01-23T21:15:30.342Z,55.43
2019-01-23T21:17:59.709Z,37.37
2019-01-23T21:20:30.033Z,52.30
2019-01-23T21:22:59.344Z,55.00
2019-01-23T21:25:28.688Z,52.80
2019-01-23T21:27:58.075Z,53.80
2019-01-23T21:30:28.274Z,52.90
2019-01-23T21:32:57.589Z,50.13
2019-01-23T21:35:27.947Z,56.40
2019-01-23T21:37:57.555Z,55.10
2019-01-23T21:40:29.539Z,46.13
2019-01-23T21:42:58.906Z,47.23
2019-01-23T21:45:28.854Z,53.93
2019-01-23T21:47:58.927Z,49.53
2019-01-23T21:50:28.482Z,44.70
2019-01-23T21:52:57.827Z,51.33
2019-01-23T21:55:27.258Z,55.20
2019-01-23T21:57:56.661Z,45.83
2019-01-23T22:00:29.214Z,45.13
2019-01-23T22:03:00.613Z,44.10
2019-01-23T22:05:29.995Z,51.53
2019-01-23T22:07:59.386Z,48.50
2019-01-23T22:10:28.762Z,52.03
2019-01-23T22:12:58.052Z,53.10
2019-01-23T22:15:32.207Z,49.33
2019-01-23T22:18:01.530Z,46.23
2019-01-23T22:20:30.815Z,51.37
2019-01-23T22:23:00.099Z,42.80
2019-01-23T22:25:29.476Z,46.73
2019-01-23T22:27:58.806Z,44.30
2019-01-23T22:30:30.430Z,46.03
2019-01-23T22:32:59.763Z,44.67
2019-01-23T22:35:29.240Z,51.40
2019-01-23T22:37:59.065Z,50.77
2019-01-23T22:40:28.442Z,48.77
2019-01-23T22:42:57.922Z,51.73
2019-01-23T22:45:27.258Z,58.37
2019-01-23T22:47:56.691Z,51.17
2019-01-23T22:50:27.580Z,57.57
2019-01-23T22:52:56.965Z,56.60
2019-01-23T22:55:26.272Z,50.80
2019-01-23T22:57:55.640Z,56.23
2019-01-23T23:00:28.020Z,51.50
2019-01-23T23:02:59.190Z,47.97
2019-01-23T23:05:28.485Z,54.97
2019-01-23T23:07:57.887Z,46.90
2019-01-23T23:10:27.248Z,51.67
2019-01-23T23:12:57.231Z,49.40
2019-01-23T23:15:26.509Z,46.23
2019-01-23T23:17:55.783Z,47.83
2019-01-23T23:20:25.110Z,45.53
2019-01-23T23:22:54.433Z,47.10
2019-01-23T23:25:23.725Z,46.50
2019-01-23T23:27:53.111Z,47.10
2019-01-23T23:30:24.374Z,46.13
2019-01-23T23:32:53.859Z,50.23
2019-01-23T23:35:23.279Z,56.00
2019-01-23T23:37:52.842Z,50.07
2019-01-23T23:40:22.274Z,49.23
2019-01-23T23:42:51.920Z,47.37
2019-01-23T23:45:21.453Z,48.10
2019-01-23T23:47:50.759Z,41.47
2019-01-23T23:50:20.091Z,38.93
2019-01-23T23:52:49.402Z,40.70
2019-01-23T23:55:18.685Z,38.23
2019-01-23T23:57:47.978Z,38.23
